Time;durP1;ratioP1;P1;durP2;ratioP2;P2;SDS_P1;SDS_P2;PMS_P1;PMS_P2;Temp;Humidity;BMP_temperature;BMP_pressure;BME280_temperature;BME280_humidity;BME280_pressure;Samples;Min_cycle;Max_cycle;Signal;HPM_P1;HPM_P2
2024/03/25 00:01:43;;;;;;;9.90;9.10;;;5.00;99.90;;;;;;5023205;28;20213;-78
2024/03/25 00:04:08;;;;;;;9.53;8.80;;;5.00;99.90;;;;;;4996423;28;20209;-77
2024/03/25 00:06:35;;;;;;;9.90;9.20;;;5.00;99.90;;;;;;5021972;28;20233;-78
2024/03/25 00:09:03;;;;;;;10.10;9.30;;;5.00;99.90;;;;;;5015024;28;20250;-77
2024/03/25 00:11:30;;;;;;;9.70;8.77;;;5.00;99.90;;;;;;5014150;28;20207;-78
2024/03/25 00:13:56;;;;;;;9.70;8.90;;;5.00;99.90;;;;;;5015438;28;20203;-77
2024/03/25 00:16:23;;;;;;;9.83;9.13;;;5.00;99.90;;;;;;5021018;28;20216;-77
2024/03/25 00:18:49;;;;;;;9.80;8.90;;;5.00;99.90;;;;;;5020855;28;20226;-77
2024/03/25 00:21:16;;;;;;;10.30;9.50;;;5.00;99.90;;;;;;5020643;28;20206;-78
2024/03/25 00:23:41;;;;;;;9.70;9.10;;;5.00;99.90;;;;;;5022880;28;20257;-78
2024/03/25 00:26:10;;;;;;;9.57;8.87;;;5.00;99.90;;;;;;5013024;28;20218;-78
2024/03/25 00:28:35;;;;;;;9.93;9.23;;;5.00;99.90;;;;;;5021518;28;20218;-78
2024/03/25 00:31:02;;;;;;;9.77;9.00;;;5.00;99.90;;;;;;5005649;28;20204;-78
2024/03/25 00:33:28;;;;;;;10.00;9.10;;;5.00;99.90;;;;;;5008011;28;20587;-79
2024/03/25 00:35:55;;;;;;;10.27;9.47;;;5.00;99.90;;;;;;5014610;28;20304;-80
2024/03/25 00:38:21;;;;;;;9.97;9.27;;;5.00;99.90;;;;;;5016899;28;20234;-79
2024/03/25 00:40:48;;;;;;;10.23;9.23;;;5.00;99.90;;;;;;5015302;28;20231;-79
2024/03/25 00:43:15;;;;;;;10.40;9.63;;;4.90;99.90;;;;;;5015381;28;20208;-79
2024/03/25 00:45:42;;;;;;;10.27;9.50;;;5.00;99.90;;;;;;5019487;28;20203;-78
2024/03/25 00:48:08;;;;;;;10.17;9.37;;;4.90;99.90;;;;;;5010593;28;20225;-79
2024/03/25 00:50:34;;;;;;;10.60;9.70;;;4.90;99.90;;;;;;5010638;28;20280;-79
2024/03/25 00:53:00;;;;;;;9.80;9.00;;;4.90;99.90;;;;;;5017925;28;20198;-79
2024/03/25 00:55:27;;;;;;;10.00;9.30;;;4.90;99.90;;;;;;5014131;28;20268;-78
2024/03/25 00:57:53;;;;;;;10.83;9.70;;;4.90;99.90;;;;;;5010593;28;20224;-79
2024/03/25 01:00:22;;;;;;;9.87;9.17;;;4.90;99.90;;;;;;5013684;28;20218;-80
2024/03/25 01:02:48;;;;;;;11.00;9.93;;;4.90;99.90;;;;;;5011352;28;20195;-80
2024/03/25 01:05:14;;;;;;;10.00;9.20;;;4.80;99.90;;;;;;5016745;28;20193;-79
2024/03/25 01:07:40;;;;;;;10.00;9.20;;;4.90;99.90;;;;;;5012857;28;20223;-80
2024/03/25 01:10:08;;;;;;;10.90;9.90;;;4.80;99.90;;;;;;5017319;28;20562;-80
2024/03/25 01:12:34;;;;;;;10.23;9.47;;;4.90;99.90;;;;;;5014651;28;20201;-78
2024/03/25 01:15:02;;;;;;;10.17;9.37;;;4.90;99.90;;;;;;5013655;28;20195;-79
2024/03/25 01:17:29;;;;;;;10.00;9.17;;;4.80;99.90;;;;;;5013491;28;20202;-79
2024/03/25 01:19:56;;;;;;;11.10;10.10;;;4.80;99.90;;;;;;5011123;28;20301;-78
2024/03/25 01:22:21;;;;;;;10.17;9.47;;;4.80;99.90;;;;;;5017492;28;20252;-79
2024/03/25 01:24:48;;;;;;;10.20;9.50;;;4.80;99.90;;;;;;5011635;28;20204;-80
2024/03/25 01:27:14;;;;;;;11.00;10.00;;;4.80;99.90;;;;;;5017077;28;20665;-79
2024/03/25 01:29:41;;;;;;;10.60;9.70;;;4.80;99.90;;;;;;5013758;28;20191;-78
2024/03/25 01:32:07;;;;;;;10.40;9.60;;;4.90;99.90;;;;;;5018091;28;20243;-78
2024/03/25 01:34:35;;;;;;;10.70;9.70;;;4.90;99.90;;;;;;5015610;28;20198;-80
2024/03/25 01:37:01;;;;;;;9.73;9.03;;;4.90;99.90;;;;;;5013682;28;20205;-80
2024/03/25 01:39:28;;;;;;;9.67;9.07;;;4.90;99.90;;;;;;5016301;28;20684;-78
2024/03/25 01:41:54;;;;;;;10.77;9.87;;;4.90;99.90;;;;;;5012573;28;20198;-79
2024/03/25 01:44:21;;;;;;;10.53;9.57;;;4.90;99.90;;;;;;5015612;28;20212;-80
2024/03/25 01:46:46;;;;;;;10.90;9.90;;;4.90;99.90;;;;;;5019385;28;20202;-80
2024/03/25 01:49:13;;;;;;;10.20;9.50;;;4.90;99.90;;;;;;5008866;28;20236;-78
2024/03/25 01:51:41;;;;;;;11.57;10.57;;;4.90;99.90;;;;;;5013188;28;20230;-79
2024/03/25 01:54:09;;;;;;;10.60;9.80;;;4.90;99.90;;;;;;5013533;28;20229;-80
2024/03/25 01:56:36;;;;;;;10.33;9.47;;;4.90;99.90;;;;;;5008419;28;20205;-80
2024/03/25 01:59:04;;;;;;;10.90;9.90;;;4.90;99.90;;;;;;5013618;28;20256;-80
2024/03/25 02:01:30;;;;;;;9.83;9.13;;;4.90;99.90;;;;;;5017537;28;20203;-79
2024/03/25 02:03:57;;;;;;;10.20;9.40;;;4.90;99.90;;;;;;5016096;28;20202;-78
2024/03/25 02:06:27;;;;;;;9.73;9.13;;;4.80;99.90;;;;;;5017479;28;20212;-78
2024/03/25 02:08:57;;;;;;;9.87;9.17;;;4.80;99.90;;;;;;5021059;28;20221;-78
2024/03/25 02:11:23;;;;;;;10.33;9.57;;;4.80;99.90;;;;;;5012103;28;20213;-78
2024/03/25 02:13:51;;;;;;;9.90;9.20;;;4.80;99.90;;;;;;5019588;28;20624;-78
2024/03/25 02:16:17;;;;;;;10.50;9.60;;;4.80;99.90;;;;;;5015596;28;20684;-79
2024/03/25 02:18:44;;;;;;;9.83;9.13;;;4.80;99.90;;;;;;5010898;28;20713;-78
2024/03/25 02:21:10;;;;;;;10.00;9.30;;;4.80;99.90;;;;;;5017887;28;20203;-78
2024/03/25 02:23:43;;;;;;;10.40;9.60;;;4.80;99.90;;;;;;5020459;28;20541;-79
2024/03/25 02:26:10;;;;;;;10.23;9.53;;;4.80;99.90;;;;;;5018266;28;20208;-78
2024/03/25 02:28:37;;;;;;;10.23;9.43;;;4.80;99.90;;;;;;5012303;28;20235;-78
2024/03/25 02:31:03;;;;;;;10.13;9.33;;;4.80;99.90;;;;;;5014427;28;20292;-78
2024/03/25 02:33:30;;;;;;;10.67;9.77;;;4.80;99.90;;;;;;5009108;28;20382;-78
2024/03/25 02:35:56;;;;;;;10.40;9.50;;;4.80;99.90;;;;;;5013649;28;20206;-78
2024/03/25 02:38:23;;;;;;;10.17;9.37;;;4.80;99.90;;;;;;5014368;28;20225;-78
2024/03/25 02:40:49;;;;;;;10.43;9.70;;;4.80;99.90;;;;;;5015268;28;20210;-78
2024/03/25 02:43:21;;;;;;;10.33;9.63;;;4.80;99.90;;;;;;5015613;28;20198;-78
2024/03/25 02:45:47;;;;;;;10.27;9.47;;;4.80;99.90;;;;;;5018287;28;20212;-79
2024/03/25 02:48:13;;;;;;;10.03;9.33;;;4.90;99.90;;;;;;5008948;28;20278;-78
2024/03/25 02:50:39;;;;;;;10.70;9.90;;;4.80;99.90;;;;;;5011489;28;20205;-78
2024/03/25 02:53:06;;;;;;;9.73;9.13;;;4.80;99.90;;;;;;5017849;28;20196;-78
2024/03/25 02:55:32;;;;;;;10.13;9.33;;;4.80;99.90;;;;;;5020670;28;20228;-78
2024/03/25 02:57:59;;;;;;;10.13;9.43;;;4.80;99.90;;;;;;5015874;28;20218;-78
2024/03/25 03:00:26;;;;;;;10.40;9.50;;;4.80;99.90;;;;;;5016323;28;20780;-78
2024/03/25 03:02:53;;;;;;;9.83;9.13;;;4.80;99.90;;;;;;5015870;28;20277;-78
2024/03/25 03:05:19;;;;;;;10.10;9.30;;;4.80;99.90;;;;;;5016309;28;20198;-78
2024/03/25 03:07:46;;;;;;;10.17;9.43;;;4.80;99.90;;;;;;5013265;28;20254;-79
2024/03/25 03:10:12;;;;;;;10.43;9.47;;;4.80;99.90;;;;;;5017148;28;20198;-78
2024/03/25 03:12:38;;;;;;;10.07;9.40;;;4.80;99.90;;;;;;5020403;28;20224;-79
2024/03/25 03:15:05;;;;;;;10.10;9.50;;;4.80;99.90;;;;;;5017319;28;20252;-78
2024/03/25 03:17:34;;;;;;;10.63;9.70;;;4.80;99.90;;;;;;5014227;28;20220;-78
2024/03/25 03:19:59;;;;;;;9.70;9.10;;;4.80;99.90;;;;;;5017080;28;20206;-78
2024/03/25 03:22:26;;;;;;;9.70;9.00;;;4.80;99.90;;;;;;5015950;28;20731;-78
2024/03/25 03:24:52;;;;;;;10.60;9.73;;;4.70;99.90;;;;;;5008352;28;20201;-78
2024/03/25 03:27:19;;;;;;;9.90;9.30;;;4.70;99.90;;;;;;5015332;28;20197;-78
2024/03/25 03:29:45;;;;;;;9.90;9.10;;;4.70;99.90;;;;;;5019291;28;20202;-78
2024/03/25 03:32:12;;;;;;;10.33;9.63;;;4.70;99.90;;;;;;5016925;28;20252;-78
2024/03/25 03:34:39;;;;;;;10.90;10.00;;;4.70;99.90;;;;;;5011446;28;20730;-78
2024/03/25 03:37:05;;;;;;;10.03;9.33;;;4.70;99.90;;;;;;5018203;28;20582;-79
2024/03/25 03:39:32;;;;;;;10.80;9.80;;;4.70;99.90;;;;;;5014287;28;20286;-78
2024/03/25 03:42:00;;;;;;;9.93;9.03;;;4.70;99.90;;;;;;5004604;28;20213;-78
2024/03/25 03:44:25;;;;;;;9.70;8.93;;;4.70;99.90;;;;;;5012262;28;20201;-78
2024/03/25 03:46:52;;;;;;;10.70;9.80;;;4.70;99.90;;;;;;5017039;28;20199;-77
2024/03/25 03:49:18;;;;;;;10.30;9.50;;;4.70;99.90;;;;;;5013281;28;20227;-78
2024/03/25 03:51:46;;;;;;;11.30;10.30;;;4.70;99.90;;;;;;4995572;28;20205;-79
2024/03/25 03:54:12;;;;;;;13.17;11.73;;;4.70;99.90;;;;;;4993234;28;20259;-81
2024/03/25 03:56:39;;;;;;;14.70;13.17;;;4.60;99.90;;;;;;4990084;28;20206;-82
2024/03/25 03:59:04;;;;;;;15.57;14.10;;;4.60;99.90;;;;;;4987032;28;20602;-81
2024/03/25 04:01:31;;;;;;;16.67;15.07;;;4.60;99.90;;;;;;4986330;28;20187;-81
2024/03/25 04:03:57;;;;;;;20.07;18.07;;;4.60;99.90;;;;;;4988232;28;20757;-81
2024/03/25 04:06:24;;;;;;;19.50;17.50;;;4.60;99.90;;;;;;4990273;28;20210;-82
2024/03/25 04:08:51;;;;;;;23.23;18.77;;;4.60;99.90;;;;;;5016848;23;20229;-82
2024/03/25 04:11:20;;;;;;;26.60;21.57;;;4.60;99.90;;;;;;5025370;28;20201;-81
2024/03/25 04:13:47;;;;;;;22.10;19.77;;;4.60;99.90;;;;;;5039647;28;20200;-81
2024/03/25 04:16:20;;;;;;;25.70;22.10;;;4.60;99.90;;;;;;5027890;28;20196;-83
2024/03/25 04:18:47;;;;;;;24.20;21.33;;;4.60;99.90;;;;;;5051774;28;20240;-82
2024/03/25 04:21:14;;;;;;;26.40;21.80;;;4.60;99.90;;;;;;5034537;28;20206;-81
2024/03/25 04:23:40;;;;;;;23.20;20.23;;;4.60;99.90;;;;;;5033258;28;20268;-81
2024/03/25 04:26:10;;;;;;;24.93;21.27;;;4.60;99.90;;;;;;5037764;28;20196;-82
2024/03/25 04:28:36;;;;;;;22.60;19.43;;;4.60;99.90;;;;;;5037699;28;20240;-80
2024/03/25 04:31:02;;;;;;;20.20;18.07;;;4.60;99.90;;;;;;5040157;28;20685;-80
2024/03/25 04:33:30;;;;;;;22.17;18.90;;;4.60;99.90;;;;;;5048849;28;20206;-81
2024/03/25 04:35:57;;;;;;;21.13;18.93;;;4.60;99.90;;;;;;5055436;28;20195;-81
